Time;durP1;ratioP1;P1;durP2;ratioP2;P2;SDS_P1;SDS_P2;PMS_P1;PMS_P2;Temp;Humidity;BMP_temperature;BMP_pressure;BME280_temperature;BME280_humidity;BME280_pressure;Samples;Min_cycle;Max_cycle;Signal;HPM_P1;HPM_P2
2023/05/03 00:00:52;;;;;;;17.77;12.38;;;;;;;7.66;100.00;96975.09;5089793;28;20052;-72
2023/05/03 00:03:21;;;;;;;17.13;11.85;;;;;;;7.61;100.00;96975.13;5089389;28;20044;-73
2023/05/03 00:05:48;;;;;;;18.13;12.63;;;;;;;7.54;100.00;96967.34;5087809;27;20052;-72
2023/05/03 00:08:15;;;;;;;19.10;12.65;;;;;;;7.51;100.00;96967.09;5085186;27;20139;-73
2023/05/03 00:10:42;;;;;;;19.10;11.90;;;;;;;7.49;100.00;96967.38;5088858;28;20036;-74
2023/05/03 00:13:09;;;;;;;14.80;11.23;;;;;;;7.50;100.00;96960.88;5088188;28;20054;-73
2023/05/03 00:15:35;;;;;;;16.63;11.38;;;;;;;7.50;100.00;96962.78;5090238;28;20048;-73
2023/05/03 00:18:02;;;;;;;15.38;11.05;;;;;;;7.49;100.00;96963.88;5086382;27;20043;-74
2023/05/03 00:20:28;;;;;;;15.30;11.48;;;;;;;7.49;100.00;96964.66;5089544;28;20051;-73
2023/05/03 00:22:55;;;;;;;20.73;13.25;;;;;;;7.46;100.00;96975.25;5089678;28;20044;-73
2023/05/03 00:25:21;;;;;;;18.17;12.35;;;;;;;7.46;100.00;96972.56;5089414;28;20105;-73
2023/05/03 00:27:49;;;;;;;17.75;12.30;;;;;;;7.47;100.00;96966.88;5087900;28;20048;-74
2023/05/03 00:30:17;;;;;;;21.08;13.38;;;;;;;7.53;100.00;96967.63;5089072;28;20047;-73
2023/05/03 00:32:44;;;;;;;17.52;12.30;;;;;;;7.49;100.00;96964.66;5091403;28;20135;-74
2023/05/03 00:35:10;;;;;;;17.08;12.38;;;;;;;7.49;100.00;96961.97;5092886;28;20492;-75
2023/05/03 00:37:37;;;;;;;17.55;11.93;;;;;;;7.45;100.00;96968.22;5092557;28;20044;-74
2023/05/03 00:40:04;;;;;;;15.20;10.63;;;;;;;7.45;100.00;96954.69;5089403;28;20049;-75
2023/05/03 00:42:33;;;;;;;15.55;11.30;;;;;;;7.42;100.00;96955.25;5092916;28;20490;-72
2023/05/03 00:45:03;;;;;;;18.27;11.68;;;;;;;7.40;100.00;96960.13;5092793;28;20514;-75
2023/05/03 00:47:30;;;;;;;16.85;11.82;;;;;;;7.37;100.00;96961.53;5090744;28;20040;-73
2023/05/03 00:49:56;;;;;;;18.73;12.35;;;;;;;7.40;100.00;96962.84;5092642;28;20048;-73
2023/05/03 00:52:23;;;;;;;17.60;11.98;;;;;;;7.42;100.00;96958.78;5092508;28;20040;-73
2023/05/03 00:54:49;;;;;;;16.50;12.02;;;;;;;7.30;100.00;96955.59;5092781;28;20467;-74
2023/05/03 00:57:16;;;;;;;20.70;12.38;;;;;;;7.38;100.00;96957.72;5091081;28;20127;-73
2023/05/03 00:59:42;;;;;;;18.50;11.63;;;;;;;7.33;100.00;96960.47;5091841;28;20564;-73
2023/05/03 01:02:10;;;;;;;19.08;12.23;;;;;;;7.39;100.00;96962.03;5092120;28;20051;-73
2023/05/03 01:04:37;;;;;;;20.85;12.75;;;;;;;7.44;100.00;96964.72;5091862;28;20048;-72
2023/05/03 01:10:34;;;;;;;17.55;11.77;;;;;;;7.56;100.00;96961.63;5085107;28;20047;-73
2023/05/03 01:13:08;;;;;;;20.48;13.40;;;;;;;7.58;100.00;96968.41;5083320;28;20035;-72
2023/05/03 01:15:45;;;;;;;20.80;13.10;;;;;;;7.61;100.00;96969.72;5091473;28;20135;-72
2023/05/03 01:18:17;;;;;;;22.27;12.50;;;;;;;7.66;100.00;96961.53;5090042;27;20106;-77
2023/05/03 01:20:47;;;;;;;19.85;13.05;;;;;;;7.65;100.00;96961.84;5093112;27;20044;-72
2023/05/03 01:23:22;;;;;;;19.85;13.18;;;;;;;7.55;100.00;96952.69;5092593;28;20047;-73
2023/05/03 01:25:53;;;;;;;18.95;11.98;;;;;;;7.55;100.00;96952.69;5092377;28;20534;-73
2023/05/03 01:28:19;;;;;;;17.25;11.70;;;;;;;7.54;100.00;96950.28;5092805;28;20040;-73
2023/05/03 01:30:47;;;;;;;17.65;12.25;;;;;;;7.53;100.00;96949.47;5091118;27;20055;-73
2023/05/03 01:33:22;;;;;;;18.38;12.20;;;;;;;7.56;100.00;96948.88;5091996;28;20048;-73
2023/05/03 01:35:54;;;;;;;20.70;12.05;;;;;;;7.56;100.00;96943.47;5092182;28;20154;-73
2023/05/03 01:38:23;;;;;;;15.93;10.30;;;;;;;7.59;100.00;96937.50;5091706;28;20066;-73
2023/05/03 01:40:53;;;;;;;16.17;10.63;;;;;;;7.63;100.00;96942.34;5090086;28;20067;-72
2023/05/03 01:43:22;;;;;;;16.40;11.05;;;;;;;7.58;100.00;96941.31;5090643;28;20047;-73
2023/05/03 01:45:49;;;;;;;14.27;9.15;;;;;;;7.62;100.00;96946.13;5091586;28;20437;-72
2023/05/03 01:48:18;;;;;;;14.15;10.55;;;;;;;7.62;100.00;96941.50;5090548;28;20052;-73
2023/05/03 01:50:44;;;;;;;13.80;9.48;;;;;;;7.62;100.00;96940.72;5089939;28;20053;-73
2023/05/03 01:53:11;;;;;;;17.00;10.88;;;;;;;7.63;100.00;96942.34;5091062;28;20146;-73
2023/05/03 01:55:37;;;;;;;14.63;9.95;;;;;;;7.63;100.00;96942.34;5091574;28;20040;-72
2023/05/03 01:58:06;;;;;;;18.67;10.80;;;;;;;7.61;100.00;96944.53;5090685;28;20052;-73
2023/05/03 02:00:32;;;;;;;17.17;10.80;;;;;;;7.56;100.00;96946.19;5090396;27;20040;-72
2023/05/03 02:02:59;;;;;;;13.50;9.45;;;;;;;7.53;100.00;96944.06;5091257;28;20040;-73
2023/05/03 02:05:25;;;;;;;16.85;9.82;;;;;;;7.49;100.00;96948.41;5090835;28;20564;-72
2023/05/03 02:07:52;;;;;;;16.35;10.55;;;;;;;7.44;100.00;96945.75;5090938;28;20052;-73
2023/05/03 02:10:18;;;;;;;13.75;9.45;;;;;;;7.42;100.00;96947.94;5087531;27;20062;-72
2023/05/03 02:12:45;;;;;;;13.23;9.10;;;;;;;7.41;100.00;96951.72;5090489;28;20032;-72
2023/05/03 02:15:13;;;;;;;16.02;9.98;;;;;;;7.40;100.00;96949.28;5088935;28;20406;-73
2023/05/03 02:17:42;;;;;;;14.55;9.43;;;;;;;7.38;100.00;96957.72;5090962;28;20044;-72
2023/05/03 02:20:09;;;;;;;12.52;8.73;;;;;;;7.35;100.00;96946.63;5090830;28;20135;-72
2023/05/03 02:22:36;;;;;;;16.10;10.02;;;;;;;7.33;100.00;96952.34;5090892;28;20048;-72
2023/05/03 02:25:03;;;;;;;15.18;9.75;;;;;;;7.32;100.00;96943.41;5089626;28;20044;-72
2023/05/03 02:27:29;;;;;;;13.25;9.10;;;;;;;7.33;100.00;96944.22;5090840;28;20044;-73
2023/05/03 02:29:56;;;;;;;14.30;9.30;;;;;;;7.32;100.00;96946.13;5091037;28;20564;-72
2023/05/03 02:32:24;;;;;;;14.88;9.02;;;;;;;7.35;100.00;96947.44;5090303;28;20072;-72
2023/05/03 02:34:51;;;;;;;15.15;9.85;;;;;;;7.33;100.00;96944.22;5088442;27;20048;-72
2023/05/03 02:37:17;;;;;;;16.38;10.05;;;;;;;7.28;100.00;96945.06;5090237;28;20465;-74
2023/05/03 02:39:43;;;;;;;14.55;9.20;;;;;;;7.27;100.00;96951.56;5091279;28;20051;-74
2023/05/03 02:42:10;;;;;;;11.57;7.90;;;;;;;7.25;100.00;96953.72;5089994;28;20051;-74
2023/05/03 02:44:36;;;;;;;14.32;8.77;;;;;;;7.24;100.00;96954.03;5088939;27;20050;-74
2023/05/03 02:47:03;;;;;;;13.75;8.52;;;;;;;7.20;100.00;96955.66;5089977;28;20044;-74
2023/05/03 02:49:31;;;;;;;13.23;8.23;;;;;;;7.19;100.00;96954.88;5090616;28;20044;-74
2023/05/03 02:51:57;;;;;;;15.63;9.40;;;;;;;7.18;100.00;96960.56;5088770;28;20140;-75
2023/05/03 02:54:24;;;;;;;14.07;9.02;;;;;;;7.19;100.00;96954.06;5089128;27;20071;-74
2023/05/03 02:56:50;;;;;;;18.05;11.55;;;;;;;7.21;100.00;96954.59;5089465;28;20075;-73
2023/05/03 02:59:17;;;;;;;18.73;12.00;;;;;;;7.22;100.00;96953.50;5090126;28;20047;-75
2023/05/03 03:01:43;;;;;;;26.42;14.73;;;;;;;7.24;100.00;96964.84;5090292;28;20044;-74
2023/05/03 03:04:10;;;;;;;29.38;14.13;;;;;;;7.11;100.00;96957.38;5088688;28;20054;-74
2023/05/03 03:06:37;;;;;;;21.88;13.80;;;;;;;7.09;100.00;96954.94;5090087;28;20040;-75
2023/05/03 03:09:04;;;;;;;22.65;13.40;;;;;;;7.15;100.00;96953.84;5089896;28;20040;-73
2023/05/03 03:11:31;;;;;;;26.10;15.60;;;;;;;7.17;100.00;96972.50;5090154;28;20067;-73
2023/05/03 03:13:57;;;;;;;23.67;15.32;;;;;;;7.16;100.00;96966.28;5088106;28;20536;-73
2023/05/03 03:16:24;;;;;;;24.30;13.57;;;;;;;7.12;100.00;96967.13;5089847;28;20048;-73
2023/05/03 03:18:50;;;;;;;22.92;14.55;;;;;;;7.12;100.00;96964.41;5090395;28;20040;-73
2023/05/03 03:21:17;;;;;;;53.35;17.38;;;;;;;6.99;100.00;96963.91;5087484;28;20043;-73
2023/05/03 03:23:44;;;;;;;76.53;18.00;;;;;;;6.77;100.00;96958.09;5087840;28;20066;-73
2023/05/03 03:26:11;;;;;;;47.28;18.05;;;;;;;6.56;100.00;96957.38;5089094;28;20047;-72
2023/05/03 03:28:37;;;;;;;88.13;19.05;;;;;;;6.34;100.00;96959.63;5089421;28;20118;-72
2023/05/03 03:31:04;;;;;;;128.68;21.20;;;;;;;6.26;100.00;96958.28;5089304;28;20079;-72
2023/05/03 03:33:31;;;;;;;39.45;15.68;;;;;;;6.43;100.00;96958.78;5088388;28;20047;-73
2023/05/03 03:35:57;;;;;;;114.85;20.17;;;;;;;6.43;100.00;96947.16;5089755;28;20055;-73
2023/05/03 03:38:24;;;;;;;26.42;14.65;;;;;;;6.64;100.00;96946.00;5089120;28;20048;-73
2023/05/03 03:40:53;;;;;;;130.05;19.23;;;;;;;6.66;100.00;96954.63;5089976;28;20044;-72
2023/05/03 03:43:19;;;;;;;31.13;14.20;;;;;;;6.71;100.00;96959.22;5088484;28;20044;-73
2023/05/03 03:45:46;;;;;;;37.97;14.57;;;;;;;6.80;100.00;96944.81;5089771;28;20044;-73
2023/05/03 03:48:12;;;;;;;54.40;14.57;;;;;;;6.82;100.00;96955.38;5089106;28;20526;-73
2023/05/03 03:50:38;;;;;;;25.58;13.90;;;;;;;6.87;100.00;96960.75;5089718;28;20510;-73
2023/05/03 03:53:05;;;;;;;29.35;14.60;;;;;;;6.94;100.00;96955.84;5088963;28;20052;-72
2023/05/03 03:55:31;;;;;;;31.63;15.65;;;;;;;7.03;100.00;96964.19;5091093;28;20047;-73
2023/05/03 03:57:59;;;;;;;109.57;20.52;;;;;;;6.87;100.00;96955.34;5088833;28;20090;-73
2023/05/03 04:00:26;;;;;;;31.25;16.20;;;;;;;7.03;100.00;96967.69;5089151;28;20527;-72
2023/05/03 04:02:52;;;;;;;109.65;18.33;;;;;;;7.07;100.00;96963.34;5088776;28;20048;-72
2023/05/03 04:05:19;;;;;;;29.85;16.02;;;;;;;7.14;100.00;96973.03;5089537;28;20040;-73
2023/05/03 04:07:47;;;;;;;29.80;15.82;;;;;;;7.23;100.00;96972.19;5091928;28;20501;-73
2023/05/03 04:10:14;;;;;;;29.05;15.82;;;;;;;7.31;100.00;96973.50;5093335;28;20064;-72
2023/05/03 04:12:40;;;;;;;47.28;16.38;;;;;;;7.27;100.00;96977.84;5091878;28;20044;-72
2023/05/03 04:15:10;;;;;;;30.25;15.60;;;;;;;7.35;100.00;96979.13;5093301;28;20044;-73
2023/05/03 04:17:37;;;;;;;40.95;16.77;;;;;;;7.34;100.00;96975.63;5092279;28;20040;-73
2023/05/03 04:20:07;;;;;;;33.28;16.35;;;;;;;7.39;100.00;96981.00;5093870;28;20098;-73
2023/05/03 04:22:34;;;;;;;33.67;16.95;;;;;;;7.39;100.00;96983.72;5091778;28;20093;-72
2023/05/03 04:25:00;;;;;;;90.90;20.25;;;;;;;7.29;100.00;96981.88;5093086;28;20040;-74
2023/05/03 04:27:27;;;;;;;63.83;18.80;;;;;;;7.31;100.00;96984.34;5093210;28;20040;-72
2023/05/03 04:29:54;;;;;;;36.80;17.90;;;;;;;7.28;100.00;96980.28;5093365;28;20044;-72
2023/05/03 04:32:22;;;;;;;50.05;19.60;;;;;;;7.24;100.00;96984.63;5089021;28;20044;-72
2023/05/03 04:34:49;;;;;;;87.63;20.30;;;;;;;7.08;100.00;96985.81;5092976;28;20510;-74
2023/05/03 04:37:15;;;;;;;36.92;17.90;;;;;;;7.28;100.00;96984.88;5092670;28;20044;-73
2023/05/03 04:39:41;;;;;;;58.80;20.88;;;;;;;7.32;100.00;96992.16;5094404;28;20044;-73
2023/05/03 04:42:08;;;;;;;38.72;18.55;;;;;;;7.41;100.00;96995.06;5092887;28;20122;-73
2023/05/03 04:44:35;;;;;;;38.70;18.55;;;;;;;7.53;100.00;96997.44;5094226;28;20054;-73
2023/05/03 04:47:01;;;;;;;35.72;18.30;;;;;;;7.61;100.00;96998.72;5094352;28;20071;-75
2023/05/03 04:49:31;;;;;;;34.97;18.67;;;;;;;7.64;100.00;97003.59;5094496;28;20040;-73
2023/05/03 04:51:58;;;;;;;34.95;17.70;;;;;;;7.65;100.00;97002.50;5092489;28;20048;-72
2023/05/03 04:54:24;;;;;;;40.00;18.35;;;;;;;7.65;100.00;97002.50;5093008;28;20051;-73
2023/05/03 04:56:51;;;;;;;71.95;21.38;;;;;;;7.70;100.00;97005.16;5093128;28;20055;-73
2023/05/03 04:59:18;;;;;;;39.17;19.38;;;;;;;7.78;100.00;96999.16;5091099;28;20130;-73
2023/05/03 05:01:44;;;;;;;44.15;19.60;;;;;;;7.81;100.00;97004.78;5091891;28;20562;-73
2023/05/03 05:04:11;;;;;;;32.70;16.88;;;;;;;7.80;100.00;97018.66;5092383;28;20044;-72
2023/05/03 05:06:39;;;;;;;34.47;17.35;;;;;;;7.82;100.00;97013.75;5092321;28;20577;-72
2023/05/03 05:09:07;;;;;;;61.97;18.65;;;;;;;7.87;100.00;97007.47;5092115;28;20044;-73
2023/05/03 05:11:33;;;;;;;41.38;19.00;;;;;;;7.94;100.00;97014.19;5089962;28;20036;-73
2023/05/03 05:14:00;;;;;;;69.10;19.00;;;;;;;7.89;100.00;97016.94;5092182;28;20048;-73
2023/05/03 05:16:26;;;;;;;31.83;16.45;;;;;;;7.91;100.00;97013.94;5091952;28;20039;-73
2023/05/03 05:18:53;;;;;;;31.38;16.80;;;;;;;7.89;100.00;97019.66;5091512;28;20055;-73
2023/05/03 05:21:19;;;;;;;72.55;18.40;;;;;;;7.86;100.00;97014.78;5091340;28;20048;-73
2023/05/03 05:23:47;;;;;;;32.67;15.20;;;;;;;7.75;100.00;97021.41;5090241;28;20044;-73
2023/05/03 05:26:14;;;;;;;43.70;15.57;;;;;;;7.75;100.00;97021.41;5071649;28;20492;-73
2023/05/03 05:28:40;;;;;;;35.72;16.08;;;;;;;7.75;100.00;97026.81;5078419;27;20047;-73
2023/05/03 05:31:07;;;;;;;36.80;14.35;;;;;;;7.83;100.00;97028.94;5091646;28;20047;-74
2023/05/03 05:33:33;;;;;;;55.85;20.45;;;;;;;7.84;100.00;97025.94;5083068;28;20495;-72
2023/05/03 05:36:00;;;;;;;50.33;21.58;;;;;;;7.90;100.00;97029.41;5091796;28;20052;-73
2023/05/03 05:38:27;;;;;;;42.63;18.65;;;;;;;8.02;100.00;97031.75;5091841;28;20036;-73
2023/05/03 05:40:54;;;;;;;47.22;19.08;;;;;;;8.14;100.00;97034.88;5092021;28;20079;-73
2023/05/03 05:43:21;;;;;;;35.75;19.13;;;;;;;8.20;100.00;97035.66;5090549;28;20043;-73
2023/05/03 05:45:48;;;;;;;50.15;20.88;;;;;;;8.14;100.00;97039.50;5089584;28;20048;-73
2023/05/03 05:48:14;;;;;;;38.47;16.95;;;;;;;8.26;100.00;97034.53;5090890;28;20040;-73
2023/05/03 05:50:41;;;;;;;38.45;17.67;;;;;;;8.33;100.00;97040.41;5091761;28;20041;-73
2023/05/03 05:53:08;;;;;;;49.65;20.00;;;;;;;8.41;100.00;97039.81;5088171;28;20449;-73
2023/05/03 05:55:35;;;;;;;41.42;18.83;;;;;;;8.47;100.00;97041.38;5091906;28;20052;-73
2023/05/03 05:58:03;;;;;;;45.35;19.88;;;;;;;8.47;100.00;97035.97;5091340;28;20048;-73
2023/05/03 06:00:30;;;;;;;39.60;18.75;;;;;;;8.46;100.00;97042.50;5091347;28;20040;-73
2023/05/03 06:02:56;;;;;;;38.70;18.35;;;;;;;8.52;100.00;97044.06;5089855;28;20725;-73
2023/05/03 06:05:23;;;;;;;45.85;21.10;;;;;;;8.57;100.00;97048.63;5090788;28;20044;-73
2023/05/03 06:07:50;;;;;;;46.20;21.60;;;;;;;8.62;100.00;97046.66;5091382;28;20048;-73
2023/05/03 06:10:16;;;;;;;49.15;22.17;;;;;;;8.67;100.00;97047.69;5090424;28;20051;-73
2023/05/03 06:12:43;;;;;;;51.80;23.13;;;;;;;8.70;100.00;97044.41;5089599;28;20047;-75
2023/05/03 06:15:11;;;;;;;51.20;22.00;;;;;;;8.74;100.00;97051.69;5090804;28;20047;-75
2023/05/03 06:17:37;;;;;;;46.03;21.92;;;;;;;8.79;100.00;97053.53;5091286;28;20051;-74
2023/05/03 06:20:04;;;;;;;47.67;21.55;;;;;;;8.87;100.00;97053.72;5089890;28;20048;-75
2023/05/03 06:22:31;;;;;;;45.83;20.70;;;;;;;8.94;100.00;97050.63;5092302;28;20411;-74
2023/05/03 06:24:58;;;;;;;51.08;22.30;;;;;;;8.89;100.00;97056.13;5091874;28;20044;-73
2023/05/03 06:27:24;;;;;;;45.33;22.42;;;;;;;8.89;100.00;97053.41;5090786;28;20051;-73
2023/05/03 06:29:51;;;;;;;60.20;24.60;;;;;;;8.91;100.00;97062.06;5090146;28;20509;-73
2023/05/03 06:32:20;;;;;;;42.83;21.33;;;;;;;9.01;100.00;97061.94;5089800;27;20115;-73
2023/05/03 06:34:47;;;;;;;44.58;20.05;;;;;;;9.02;100.00;97066.28;5089651;28;20052;-73
2023/05/03 06:37:14;;;;;;;47.55;19.88;;;;;;;9.03;100.00;97072.50;5088394;28;20081;-73
2023/05/03 06:39:40;;;;;;;40.08;20.33;;;;;;;9.02;100.00;97071.72;5090186;28;20040;-73
2023/05/03 06:42:07;;;;;;;39.33;19.50;;;;;;;9.02;100.00;97069.00;5088066;28;20056;-73
2023/05/03 06:44:34;;;;;;;42.85;19.83;;;;;;;9.07;100.00;97062.69;5086317;28;20441;-72
2023/05/03 06:47:00;;;;;;;44.03;21.10;;;;;;;9.09;100.00;97066.75;5088770;28;20055;-73
2023/05/03 06:49:28;;;;;;;34.38;18.20;;;;;;;9.13;100.00;97061.53;5088946;28;20040;-73
2023/05/03 06:51:54;;;;;;;36.60;19.40;;;;;;;9.16;100.00;97058.25;5088083;28;20051;-75
2023/05/03 06:54:21;;;;;;;45.83;21.38;;;;;;;9.18;100.00;97068.81;5084622;28;20040;-74
2023/05/03 06:56:47;;;;;;;43.17;21.45;;;;;;;9.20;100.00;97062.00;5088943;28;20044;-73
2023/05/03 06:59:14;;;;;;;36.85;21.15;;;;;;;9.21;100.00;97068.22;5082421;28;20059;-72
2023/05/03 07:01:40;;;;;;;41.75;21.55;;;;;;;9.20;100.00;97072.06;5084667;28;20040;-71
2023/05/03 07:04:07;;;;;;;38.58;21.42;;;;;;;9.19;100.00;97067.69;5082112;28;20044;-72
2023/05/03 07:06:35;;;;;;;44.08;23.00;;;;;;;9.24;100.00;97059.47;5084759;28;20048;-73
2023/05/03 07:09:01;;;;;;;38.90;20.23;;;;;;;9.30;100.00;97055.63;5069903;28;20044;-72
2023/05/03 07:11:27;;;;;;;40.17;20.23;;;;;;;9.42;100.00;97053.28;5070095;28;20063;-73
2023/05/03 07:13:54;;;;;;;44.22;22.13;;;;;;;9.50;100.00;97054.50;5070130;28;20051;-74
2023/05/03 07:16:21;;;;;;;40.53;21.45;;;;;;;9.57;100.00;97055.78;5073743;28;20509;-74
2023/05/03 07:18:48;;;;;;;39.65;22.67;;;;;;;9.64;100.00;97050.75;5090236;28;20074;-74
2023/05/03 07:21:15;;;;;;;35.70;20.63;;;;;;;9.73;100.00;97058.28;5089571;28;20518;-73
2023/05/03 07:23:44;;;;;;;35.30;20.08;;;;;;;9.80;100.00;97056.78;5089875;28;20416;-74
2023/05/03 07:26:10;;;;;;;32.92;19.33;;;;;;;9.84;100.00;97054.28;5089682;28;20048;-74
2023/05/03 07:28:37;;;;;;;34.00;19.38;;;;;;;9.79;100.00;97052.44;5090166;28;20055;-73
2023/05/03 07:31:03;;;;;;;33.30;20.17;;;;;;;9.78;100.00;97050.84;5089338;28;20103;-74
2023/05/03 07:33:30;;;;;;;36.92;20.13;;;;;;;9.93;100.00;97045.16;5081566;28;20044;-73
2023/05/03 07:35:57;;;;;;;35.20;19.58;;;;;;;10.00;100.00;97042.06;5089834;28;20059;-73
2023/05/03 07:38:23;;;;;;;34.38;21.23;;;;;;;9.93;100.00;97047.88;5085622;28;20036;-73
2023/05/03 07:40:51;;;;;;;35.20;21.08;;;;;;;10.01;100.00;97051.81;5089157;28;20051;-73
2023/05/03 07:43:20;;;;;;;39.15;21.45;;;;;;;9.95;100.00;97039.41;5090432;28;20055;-73
2023/05/03 07:45:46;;;;;;;32.17;19.83;;;;;;;10.12;100.00;97042.38;5092966;28;20146;-73
2023/05/03 07:48:12;;;;;;;37.22;22.30;;;;;;;10.16;100.00;97035.25;5091407;28;20044;-73
2023/05/03 07:50:41;;;;;;;33.35;19.85;;;;;;;10.27;100.00;97040.53;5093214;28;20414;-73
2023/05/03 07:53:08;;;;;;;37.40;21.83;;;;;;;10.27;100.00;97045.97;5090379;28;20687;-73
2023/05/03 07:55:35;;;;;;;32.50;19.02;;;;;;;10.29;100.00;97035.63;5089882;28;20044;-73
2023/05/03 07:58:03;;;;;;;30.65;18.60;;;;;;;10.37;100.00;97040.38;5085598;28;20407;-74
2023/05/03 08:00:30;;;;;;;36.13;19.80;;;;;;;10.42;100.00;97038.34;5091030;28;20040;-73
2023/05/03 08:02:57;;;;;;;32.25;18.88;;;;;;;10.50;100.00;97041.50;5087299;28;20310;-72
2023/05/03 08:05:23;;;;;;;38.40;21.55;;;;;;;10.53;100.00;97046.34;5092536;27;20044;-73
2023/05/03 08:07:50;;;;;;;42.58;21.83;;;;;;;10.36;100.00;97044.19;5092224;28;20048;-74
2023/05/03 08:10:16;;;;;;;40.75;22.42;;;;;;;10.32;100.00;97045.91;5092281;28;20048;-74
2023/05/03 08:12:44;;;;;;;42.05;22.55;;;;;;;10.32;100.00;97040.44;5092955;28;20063;-73
2023/05/03 08:15:12;;;;;;;37.47;19.98;;;;;;;10.40;100.00;97051.47;5086865;28;20056;-73
2023/05/03 08:17:42;;;;;;;41.83;22.55;;;;;;;10.35;100.00;97037.16;5092103;28;20422;-73
2023/05/03 08:20:10;;;;;;;45.25;25.73;;;;;;;10.29;100.00;97043.78;5092588;28;20590;-74
2023/05/03 08:22:36;;;;;;;42.60;23.77;;;;;;;10.37;100.00;97043.09;5090653;28;20047;-74
2023/05/03 08:25:04;;;;;;;47.65;26.75;;;;;;;10.46;100.00;97033.13;5092298;28;20048;-73
2023/05/03 08:27:30;;;;;;;47.03;25.85;;;;;;;10.51;100.00;97041.19;5092346;28;20044;-72
2023/05/03 08:29:57;;;;;;;49.70;27.33;;;;;;;10.46;100.00;97038.56;5091482;28;20048;-72
2023/05/03 08:32:25;;;;;;;47.88;26.85;;;;;;;10.34;100.00;97046.44;5090316;28;20395;-72
2023/05/03 08:34:52;;;;;;;48.53;27.83;;;;;;;10.24;100.00;97049.31;5092264;28;20489;-74
2023/05/03 08:37:18;;;;;;;48.65;28.30;;;;;;;10.34;100.00;97046.44;5091232;28;20067;-74
2023/05/03 08:39:46;;;;;;;44.58;26.38;;;;;;;10.49;100.00;97040.69;5092643;28;20040;-72
2023/05/03 08:42:13;;;;;;;45.05;26.38;;;;;;;10.64;100.00;97050.47;5091648;28;20085;-73
2023/05/03 08:44:46;;;;;;;50.80;30.08;;;;;;;10.59;100.00;97042.41;5091984;28;20487;-72
2023/05/03 08:47:15;;;;;;;49.60;29.65;;;;;;;10.53;100.00;97044.41;5090579;28;20079;-73
2023/05/03 08:49:43;;;;;;;45.78;27.80;;;;;;;10.74;99.81;97044.03;5092161;28;20539;-74
2023/05/03 08:52:10;;;;;;;54.13;31.15;;;;;;;10.76;99.65;97041.84;5089554;28;20059;-73
2023/05/03 08:54:37;;;;;;;52.15;31.40;;;;;;;10.73;99.75;97042.44;5089239;28;20048;-73
2023/05/03 08:57:04;;;;;;;50.83;29.65;;;;;;;10.80;99.14;97037.38;5088899;28;20055;-74
2023/05/03 08:59:30;;;;;;;52.53;32.00;;;;;;;10.81;99.08;97039.03;5087955;28;20073;-74
2023/05/03 09:01:57;;;;;;;52.28;30.58;;;;;;;10.87;97.29;97037.81;5084732;28;20056;-73
2023/05/03 09:04:33;;;;;;;52.80;30.85;;;;;;;10.96;98.25;97041.41;5086585;28;20056;-75
2023/05/03 09:07:09;;;;;;;53.75;32.65;;;;;;;10.96;97.55;97041.41;5089603;28;20075;-74
2023/05/03 09:09:35;;;;;;;48.83;31.13;;;;;;;11.06;97.19;97041.19;5088956;28;20032;-76
2023/05/03 09:12:03;;;;;;;56.38;34.33;;;;;;;11.12;97.80;97050.09;5092562;27;20079;-75
2023/05/03 09:14:29;;;;;;;57.72;32.22;;;;;;;11.08;97.45;97049.09;5091108;28;20059;-75
2023/05/03 09:16:56;;;;;;;56.97;33.08;;;;;;;11.18;97.40;97049.69;5092453;28;20044;-75
2023/05/03 09:19:23;;;;;;;59.47;34.55;;;;;;;11.27;96.94;97048.97;5090425;28;20052;-75
2023/05/03 09:21:49;;;;;;;55.20;33.25;;;;;;;11.39;96.80;97046.53;5092365;27;20060;-76
2023/05/03 09:24:18;;;;;;;56.78;34.00;;;;;;;11.42;96.20;97048.63;5088286;27;20402;-74
2023/05/03 09:26:46;;;;;;;55.78;33.10;;;;;;;11.35;94.92;97056.44;5089176;27;20078;-73
2023/05/03 09:29:27;;;;;;;56.20;33.60;;;;;;;11.36;94.07;97056.13;5089863;27;20492;-75
2023/05/03 09:31:59;;;;;;;55.50;33.85;;;;;;;11.23;93.38;97057.75;5091012;28;20105;-73
2023/05/03 09:34:26;;;;;;;57.80;34.45;;;;;;;11.31;93.13;97052.69;5085479;28;20660;-72
2023/05/03 09:36:53;;;;;;;57.92;35.88;;;;;;;11.32;92.82;97055.09;5090995;27;20044;-73
2023/05/03 09:39:21;;;;;;;59.67;35.25;;;;;;;11.37;93.89;97057.72;5089682;27;20054;-77
2023/05/03 09:41:48;;;;;;;57.92;34.20;;;;;;;11.49;94.15;97049.03;5092245;28;20059;-74
2023/05/03 09:44:14;;;;;;;54.90;34.70;;;;;;;11.53;93.80;97055.47;5089510;28;20040;-73
2023/05/03 09:47:02;;;;;;;51.75;32.78;;;;;;;11.74;93.80;97051.19;5091414;28;20044;-74
2023/05/03 09:49:30;;;;;;;51.53;32.40;;;;;;;11.59;89.80;97046.09;5091354;28;20566;-74
2023/05/03 09:51:58;;;;;;;50.63;32.67;;;;;;;11.76;90.16;97046.22;5090091;28;20048;-73
2023/05/03 09:54:25;;;;;;;57.45;35.90;;;;;;;11.68;90.46;97049.66;5089173;28;20056;-74
2023/05/03 09:56:52;;;;;;;58.20;36.95;;;;;;;11.70;90.94;97050.19;5089213;27;20059;-76
2023/05/03 09:59:19;;;;;;;52.38;32.95;;;;;;;11.84;90.74;97041.97;5091345;28;20052;-76
2023/05/03 10:01:46;;;;;;;59.45;36.60;;;;;;;11.83;90.03;97042.28;5086787;28;20052;-75
2023/05/03 10:04:18;;;;;;;55.92;35.25;;;;;;;11.92;88.50;97045.91;5082669;27;20062;-74
2023/05/03 10:06:48;;;;;;;52.20;34.72;;;;;;;11.81;88.77;97039.84;5089274;28;20040;-74
2023/05/03 10:09:26;;;;;;;55.05;34.00;;;;;;;11.99;89.04;97046.25;5087992;28;20051;-75
2023/05/03 10:11:54;;;;;;;50.10;32.78;;;;;;;12.07;87.20;97045.53;5091724;28;20047;-76
2023/05/03 10:14:21;;;;;;;51.70;33.05;;;;;;;12.18;88.15;97041.44;5091113;28;20411;-73
2023/05/03 10:16:51;;;;;;;48.17;33.15;;;;;;;12.21;88.93;97035.31;5092637;28;20044;-74
2023/05/03 10:19:23;;;;;;;52.22;33.78;;;;;;;12.24;88.38;97031.19;5089989;28;20074;-75
2023/05/03 10:21:58;;;;;;;40.28;29.25;;;;;;;12.64;86.30;97028.50;5091329;28;20632;-74
2023/05/03 10:24:25;;;;;;;37.15;26.95;;;;;;;12.98;85.90;97033.28;5091181;28;20044;-74
2023/05/03 10:26:52;;;;;;;41.35;26.83;;;;;;;13.19;82.57;97028.03;5091382;28;20064;-74
2023/05/03 10:29:48;;;;;;;35.70;24.42;;;;;;;13.40;81.63;97022.81;5090036;27;20129;-74
2023/05/03 10:32:35;;;;;;;35.38;24.48;;;;;;;13.60;80.08;97022.19;5090974;28;20048;-75
2023/05/03 10:35:04;;;;;;;33.58;23.15;;;;;;;13.58;76.21;97013.50;5091406;28;20487;-77
2023/05/03 10:37:33;;;;;;;38.83;27.70;;;;;;;13.88;76.92;97016.38;5089159;28;20051;-77
2023/05/03 10:40:08;;;;;;;33.28;23.77;;;;;;;13.83;74.08;97018.19;5089906;27;20492;-76
2023/05/03 10:42:35;;;;;;;31.65;23.60;;;;;;;14.13;75.57;97007.34;5070586;28;20685;-76
2023/05/03 10:45:03;;;;;;;28.73;21.50;;;;;;;14.41;73.71;97007.78;5070614;28;20518;-76
2023/05/03 10:47:30;;;;;;;31.67;23.05;;;;;;;14.63;74.09;97003.22;5088041;27;20040;-75
2023/05/03 10:50:25;;;;;;;28.88;22.23;;;;;;;14.53;75.69;96999.69;5090462;28;20044;-75
2023/05/03 10:52:51;;;;;;;28.13;21.25;;;;;;;14.81;73.51;97008.28;5070218;28;20071;-75
2023/05/03 10:55:19;;;;;;;25.10;19.48;;;;;;;15.01;69.94;97004.00;5086289;28;20059;-75
2023/05/03 10:57:47;;;;;;;29.05;21.20;;;;;;;15.39;71.95;97005.88;5088210;28;20060;-75
2023/05/03 11:00:21;;;;;;;24.88;18.55;;;;;;;15.70;68.38;97008.28;5089917;28;20114;-75
2023/05/03 11:03:07;;;;;;;23.00;17.60;;;;;;;16.03;66.33;96999.28;5090481;28;20044;-75
2023/05/03 11:05:34;;;;;;;22.77;18.33;;;;;;;16.08;67.09;96996.34;5090584;28;20036;-75
2023/05/03 11:08:12;;;;;;;19.90;15.75;;;;;;;16.35;64.85;96998.47;5087308;28;20381;-75
2023/05/03 11:10:39;;;;;;;23.23;15.93;;;;;;;16.28;66.03;96989.97;5082311;28;20047;-75
2023/05/03 11:13:06;;;;;;;24.35;17.63;;;;;;;16.20;65.01;96988.13;5089879;28;20044;-76
2023/05/03 11:15:34;;;;;;;24.48;16.55;;;;;;;16.50;61.92;96982.47;5090096;28;20518;-76
2023/05/03 11:18:01;;;;;;;21.05;14.38;;;;;;;16.21;61.81;96981.47;5087039;28;20040;-75
2023/05/03 11:20:27;;;;;;;19.02;15.23;;;;;;;16.11;62.96;96995.63;5089396;28;20399;-75
2023/05/03 11:22:54;;;;;;;18.08;13.32;;;;;;;16.42;64.11;96984.97;5089981;28;20055;-75